• Join FlightAware (Why Join?)
  • Login
  • US Flag 
07:51PM EST


 

Airport Tracker/Info


-or-


 

Live Flight TrackerFlight Track Log ✈ TAM3752 ✈ 11-Jul-2013 ✈ SBRJ / SDU - SBCF / CNF

Flight Track Log - Related Links

Times and Time Zones

All times are in EDT time to prevent confusion due to time zone crossing. See the TAM3752 flight status page for this flight to view local times or setup timezone preferences in your user account.

Time Position Orientation Groundspeed Altitude Reporting Facility
EDT Latitude Longitude Course Direction KTS MPH feet Rate Location/Type
07:01PM -22.9370 -43.1520 135° Southeast 164 189 1,300  Level FlightAware
07:01PM -22.9520 -43.1340 132° Southeast 186 214 2,500 2,340 Climbing FlightAware
07:02PM -22.9660 -43.1190 135° Southeast 211 243 3,200 2,820 Climbing FlightAware
07:02PM -22.9790 -43.0970 123° Southeast 218 251 4,600 3,300 Climbing FlightAware
07:03PM -22.9660 -43.0680 64° Northeast 219 252 6,300 3,120 Climbing FlightAware
07:03PM -22.9560 -43.0650 15° North 210 242 6,900 3,300 Climbing FlightAware
07:03PM -22.9290 -43.0730 345° North 216 249 8,500 2,820 Climbing FlightAware
07:03PM -22.9130 -43.0770 347° North 238 274 9,000 1,800 Climbing FlightAware
07:04PM -22.8900 -43.0820 349° North 268 308 9,600 1,800 Climbing FlightAware
07:05PM -22.8320 -43.0980 346° North 329 379 10,900 2,100 Climbing FlightAware
07:05PM -22.7660 -43.1180 344° North 360 414 12,600 2,700 Climbing FlightAware
07:06PM -22.7070 -43.1350 345° North 372 428 14,400 2,760 Climbing FlightAware
07:06PM -22.6390 -43.1550 345° North 384 442 16,100 2,520 Climbing FlightAware
07:07PM -22.5630 -43.1800 343° North 398 458 18,000 2,640 Climbing FlightAware
07:08PM -22.4920 -43.2050 342° North 402 463 19,800 2,520 Climbing FlightAware
07:09PM -22.4120 -43.2310 343° North 411 473 21,600 2,040 Climbing FlightAware
07:09PM -22.3380 -43.2560 343° North 428 493 22,700 2,160 Climbing FlightAware
07:10PM -22.2560 -43.2830 343° North 423 487 24,600 2,880 Climbing FlightAware
07:10PM -22.2110 -43.2970 344° North 411 473 26,000 1,920 Climbing FlightAware
07:11PM -22.1250 -43.3260 343° North 434 499 26,900 1,440 Climbing FlightAware
07:12PM -22.0510 -43.3500 343° North 435 501 28,300 1,380 Climbing FlightAware
07:13PM -21.9750 -43.3750 343° North 449 517 29,000 540 Climbing FlightAware
07:13PM -21.8970 -43.4010 343° North 481 554 29,000  Level FlightAware
07:14PM -21.8160 -43.4270 343° North 505 581 29,000  Level FlightAware
07:15PM -21.7160 -43.4600 343° North 508 585 29,000  Level FlightAware
07:15PM -21.6390 -43.4850 343° North 508 585 29,000  Level FlightAware
07:16PM -21.5110 -43.5270 343° North 506 582 29,000  Level FlightAware
07:17PM -21.4100 -43.5600 343° North 506 582 29,000  Level FlightAware
07:18PM -21.3160 -43.5900 343° North 504 580 29,000  Level FlightAware
07:18PM -21.2230 -43.6200 343° North 504 580 29,000  Level FlightAware
07:19PM -21.1330 -43.6500 343° North 503 579 29,000  Level FlightAware
07:20PM -20.9930 -43.6950 343° North 503 579 29,000  Level FlightAware
07:21PM -20.9030 -43.7240 343° North 503 579 29,000  Level FlightAware
07:21PM -20.8100 -43.7540 343° North 503 579 29,000 -420 Level FlightAware
07:22PM -20.6790 -43.7960 343° North 465 535 28,400 -840 Descending FlightAware
07:23PM -20.6060 -43.8120 348° North 439 505 27,800 -960 Descending FlightAware
07:23PM -20.5390 -43.8030 North 420 483 27,300 -1,560 Descending FlightAware
07:24PM -20.4630 -43.7910 North 413 475 25,900 -1,980 Descending FlightAware
07:25PM -20.3810 -43.7790 North 398 458 24,600 -1,800 Descending FlightAware
07:25PM -20.3090 -43.7690 North 386 444 23,400 -1,800 Descending FlightAware
07:26PM -20.2320 -43.7570 North 376 433 22,100 -1,800 Descending FlightAware
07:27PM -20.1660 -43.7470 North 368 423 21,000 -1,620 Descending FlightAware
07:28PM -20.0890 -43.7390 North 367 422 19,900 -1,800 Descending FlightAware
07:28PM -20.0270 -43.7330 North 373 429 18,600 -1,740 Descending FlightAware
07:29PM -19.9520 -43.7250 North 357 411 17,600 -1,260 Descending FlightAware
07:30PM -19.8830 -43.7180 North 337 388 16,800 -1,260 Descending FlightAware
07:30PM -19.8190 -43.7110 North 330 380 15,800 -1,440 Descending FlightAware
07:31PM -19.7460 -43.7030 North 326 375 14,600 -1,380 Descending FlightAware
07:32PM -19.6800 -43.6970 North 309 356 13,600 -1,260 Descending FlightAware
07:33PM -19.6050 -43.7140 348° North 292 336 12,500 -1,380 Descending FlightAware
07:34PM -19.5630 -43.7570 316° Northwest 286 329 11,400 -1,500 Descending FlightAware
07:34PM -19.5270 -43.7950 315° West 275 316 10,400 -1,080 Descending FlightAware
07:35PM -19.4900 -43.8330 316° Northwest 252 290 10,000 -600 Descending FlightAware
07:35PM -19.4680 -43.8560 315° West 235 270 9,700 -660 Descending FlightAware
07:36PM -19.4510 -43.8730 317° Northwest 227 261 9,500 -900 Descending FlightAware
07:36PM -19.4420 -43.8820 317° Northwest 224 258 9,200 -1,080 Descending FlightAware
07:36PM -19.4170 -43.9080 316° Northwest 222 255 8,700 -1,020 Descending FlightAware
07:37PM -19.3990 -43.9270 315° West 220 253 8,300 -960 Descending FlightAware
07:37PM -19.3800 -43.9450 318° Northwest 218 251 7,900 -960 Descending FlightAware
07:38PM -19.3640 -43.9640 312° West 215 247 7,500 -1,140 Descending FlightAware
07:38PM -19.3620 -43.9790 278° West 216 249 7,200 -1,140 Descending FlightAware
07:38PM -19.3610 -44.0090 272° West 219 252 6,700 -1,140 Descending FlightAware
07:39PM -19.3600 -44.0380 272° West 222 255 6,200 -1,080 Descending FlightAware
07:39PM -19.3590 -44.0650 272° West 222 255 5,800 -840 Descending FlightAware
07:40PM -19.3690 -44.0980 252° West 221 254 5,400 -720 Descending FlightAware
07:40PM -19.3780 -44.1040 212° Southwest 219 252 5,300 -300 Descending FlightAware
07:40PM -19.3880 -44.1070 196° South 214 246 5,300 -300 Level FlightAware
07:41PM -19.4230 -44.1020 172° South 211 243 5,100 -300 Descending FlightAware
07:41PM -19.4490 -44.0990 174° South 209 241 5,000 -360 Descending FlightAware
07:42PM -19.4900 -44.0950 175° South 195 224 4,700 -360 Descending FlightAware
07:42PM -19.5000 -44.0910 159° South 187 215 4,700  Level FlightAware
07:43PM -19.5180 -44.0760 142° Southeast 153 176 4,700  Level FlightAware
07:43PM -19.5300 -44.0640 137° Southeast 141 162 4,700 -360 Level FlightAware
07:44PM -19.5440 -44.0510 139° Southeast 141 162 4,400 -720 Descending FlightAware
07:44PM -19.5600 -44.0370 140° Southeast 137 158 4,000 -660 Descending FlightAware
07:44PM -19.5720 -44.0260 139° Southeast 137 158 3,800 -660 Descending FlightAware
07:45PM -19.5860 -44.0130 139° Southeast 133 153 3,400 -840 Descending FlightAware
07:45PM -19.6000 -44.0000 139° Southeast 131 151 3,000 -780 Descending FlightAware
07:46PM -19.6110 -43.9890 137° Southeast 130 150 2,700 -660 Descending FlightAware
07:46PM -19.6250 -43.9770 141° Southeast 132 152 2,400 -600 Descending FlightAware
07:47PM -19.6330 -43.9700 141° Southeast 41 47 -5,580 Descending FlightAware
07:47PM -19.6350 -43.9670 125° Southeast 20 23  Level FlightAware
07:48PM -19.6360 -43.9660 137° Southeast 21 24  Level FlightAware
07:48PM -19.6360 -43.9630 90° East 15 17  Level FlightAware
07:48PM -19.6350 -43.9630 360° North 10 12  Level FlightAware
07:50PM -19.6340 -43.9650 298° West 7 8  Level FlightAware
07:50PM -19.6340 -43.9650 298° West 1 1  Level FlightAware
07:53PM -19.6338 -43.9689 274° West  Level Estimated
07:54PM -19.6338 -43.9689 90° East  Level Estimated
07:55PM -19.6338 -43.9689 90° East  Level Estimated
07:56PM -19.6338 -43.9689 90° East  Level Estimated